KDTL/DTL METAR and TAF weather

Enter ICAO airport designator
Station Type Date Time Source
KDTL METAR 2019/02/20 06:55 UTC NOAA

KDTL 200655Z AUTO 13005KT 10SM OVC034 M11/M13 A3009 RMK AO2


Station Type Date Time Source
KDTL Decoded METAR 2019/02/20 06:55 UTC NOAA

Detroit Lakes, Detroit Lakes Airport-Wething Field, MN, United States (KDTL) 46-50N 095-53W
Feb 20, 2019 - 01:55 AM EST / 2019.02.20 0655 UTC
Wind: from the SE (130 degrees) at 6 MPH (5 KT):0
Visibility: 10 mile(s):0
Sky conditions: overcast
Temperature: 12 F (-11 C)
Windchill: 3 F (-16 C):1
Dew Point: 8 F (-13 C)
Relative Humidity: 85%
Pressure (altimeter): 30.09 in. Hg (1018 hPa)
ob: KDTL 200655Z AUTO 13005KT 10SM OVC034 M11/M13 A3009 RMK AO2
cycle: 7

Station Type Date Time Source
KDTL TAF UTC NOAA

Error!


Example: see airport list